AFR926 LFPG-FOOL
Flight info
| Callsign | AFR926 |
|---|---|
| Flight time | N/A |
| Altitude | 38000 |
| Route | ERIXU6H ERIXU DCT ETAMO DCT ADEKA DCT MOKDI DCT MEN DCT AMLIR DCT FJR DCT DIVKO DCT JUSQO DCT FIRRA DCT SUXER DCT KAMER UM998 CSO/N0470F370 UA605 RIMEL UR985 IMN M999 SEB M214 GARIN DCT ILDOR UM214 PODGA DCT IKREV/N0476F380 UQ589 ISDET DCT ASSAM UH455 KEMOX DCT ETNOM UH455 ARASI ARASI2L |
| Aircraft | B772/H-SDE2E3FGHIJ5LORVWXY/LB1D1 |
Departure
| Time | N/A |
|---|---|
| Airport | Charles de Gaulle International Airport (LFPG) |
Arrival
| Time | 2026-05-05 01:25 |
|---|---|
| Airport | Libreville Leon M'ba International Airport (FOOL) |
| Time | Latitude | Longitude | Altitude | Speed | Heading |
|---|---|---|---|---|---|
| 2026-05-05 00:58 | 2.34786 | 10.64014 | 37276 ft | 487 kts | 213° |
| 2026-05-05 00:58 | 2.31990 | 10.62144 | 36599 ft | 484 kts | 213° |
| 2026-05-05 00:59 | 2.29192 | 10.60281 | 36016 ft | 481 kts | 213° |
| 2026-05-05 00:59 | 2.26417 | 10.58437 | 35499 ft | 476 kts | 213° |
| 2026-05-05 00:59 | 2.23671 | 10.56616 | 34963 ft | 472 kts | 213° |
| 2026-05-05 00:59 | 2.20954 | 10.54814 | 34445 ft | 468 kts | 213° |
| 2026-05-05 01:00 | 2.18236 | 10.53011 | 33904 ft | 465 kts | 213° |
| 2026-05-05 01:00 | 2.15554 | 10.51231 | 33336 ft | 461 kts | 213° |
| 2026-05-05 01:00 | 2.12886 | 10.49461 | 32821 ft | 457 kts | 213° |
| 2026-05-05 01:00 | 2.10248 | 10.47710 | 32303 ft | 453 kts | 213° |
| 2026-05-05 01:01 | 2.07638 | 10.45976 | 31810 ft | 449 kts | 213° |
| 2026-05-05 01:01 | 2.05070 | 10.44272 | 31315 ft | 445 kts | 213° |
| 2026-05-05 01:01 | 2.02502 | 10.42568 | 30840 ft | 441 kts | 213° |
| 2026-05-05 01:01 | 1.99949 | 10.40874 | 30341 ft | 438 kts | 213° |
| 2026-05-05 01:02 | 1.97415 | 10.39192 | 29830 ft | 436 kts | 212° |
| 2026-05-05 01:02 | 1.94890 | 10.37516 | 29260 ft | 432 kts | 212° |
| 2026-05-05 01:02 | 1.92390 | 10.35857 | 28719 ft | 429 kts | 212° |
| 2026-05-05 01:02 | 1.89907 | 10.34209 | 28186 ft | 426 kts | 212° |
| 2026-05-05 01:03 | 1.87445 | 10.32575 | 27676 ft | 424 kts | 212° |
| 2026-05-05 01:03 | 1.85024 | 10.30969 | 27168 ft | 421 kts | 212° |
| 2026-05-05 01:03 | 1.82586 | 10.29351 | 26680 ft | 419 kts | 212° |
| 2026-05-05 01:03 | 1.80166 | 10.27744 | 26181 ft | 416 kts | 213° |
| 2026-05-05 01:04 | 1.77817 | 10.26053 | 25709 ft | 415 kts | 216° |
| 2026-05-05 01:04 | 1.73307 | 10.22483 | 24742 ft | 412 kts | 218° |
| 2026-05-05 01:04 | 1.71072 | 10.20685 | 24262 ft | 411 kts | 218° |
| 2026-05-05 01:05 | 1.68840 | 10.18899 | 23800 ft | 409 kts | 218° |
| 2026-05-05 01:05 | 1.66611 | 10.17129 | 23284 ft | 408 kts | 217° |
| 2026-05-05 01:05 | 1.64418 | 10.15397 | 22788 ft | 405 kts | 217° |
| 2026-05-05 01:05 | 1.62211 | 10.13659 | 22315 ft | 402 kts | 217° |
| 2026-05-05 01:06 | 1.60016 | 10.11934 | 21848 ft | 399 kts | 217° |
| 2026-05-05 01:06 | 1.57845 | 10.10230 | 21397 ft | 395 kts | 217° |
| 2026-05-05 01:06 | 1.55693 | 10.08541 | 20965 ft | 392 kts | 217° |
| 2026-05-05 01:06 | 1.53554 | 10.06862 | 20530 ft | 389 kts | 217° |
| 2026-05-05 01:07 | 1.51438 | 10.05202 | 20098 ft | 386 kts | 217° |
| 2026-05-05 01:07 | 1.49334 | 10.03551 | 19675 ft | 383 kts | 216° |
| 2026-05-05 01:07 | 1.47242 | 10.01908 | 19242 ft | 381 kts | 216° |
| 2026-05-05 01:07 | 1.45189 | 10.00296 | 18810 ft | 379 kts | 216° |
| 2026-05-05 01:08 | 1.43122 | 9.98673 | 18367 ft | 377 kts | 216° |
| 2026-05-05 01:08 | 1.41059 | 9.97053 | 17897 ft | 374 kts | 216° |
| 2026-05-05 01:08 | 1.39014 | 9.95449 | 17441 ft | 371 kts | 216° |
| 2026-05-05 01:08 | 1.36992 | 9.93863 | 16999 ft | 367 kts | 216° |
| 2026-05-05 01:09 | 1.34988 | 9.92292 | 16585 ft | 363 kts | 216° |
| 2026-05-05 01:09 | 1.33674 | 9.91260 | 16304 ft | 362 kts | 216° |
| 2026-05-05 01:09 | 1.31707 | 9.89716 | 15883 ft | 359 kts | 216° |
| 2026-05-05 01:09 | 1.29753 | 9.88181 | 15472 ft | 356 kts | 216° |
| 2026-05-05 01:10 | 1.27807 | 9.86653 | 15057 ft | 354 kts | 216° |
| 2026-05-05 01:10 | 1.25871 | 9.85134 | 14640 ft | 352 kts | 216° |
| 2026-05-05 01:10 | 1.23943 | 9.83622 | 14223 ft | 351 kts | 216° |
| 2026-05-05 01:10 | 1.21416 | 9.81634 | 13705 ft | 348 kts | 216° |
| 2026-05-05 01:11 | 1.20148 | 9.80630 | 13448 ft | 348 kts | 216° |
| 2026-05-05 01:11 | 1.18250 | 9.79126 | 13089 ft | 348 kts | 216° |
| 2026-05-05 01:11 | 1.16354 | 9.77623 | 12739 ft | 348 kts | 216° |
| 2026-05-05 01:11 | 1.14458 | 9.76120 | 12394 ft | 347 kts | 216° |
| 2026-05-05 01:12 | 1.12566 | 9.74620 | 12050 ft | 346 kts | 216° |
| 2026-05-05 01:12 | 1.10677 | 9.73123 | 11710 ft | 345 kts | 216° |
| 2026-05-05 01:12 | 1.08800 | 9.71636 | 11376 ft | 344 kts | 216° |
| 2026-05-05 01:12 | 1.06925 | 9.70152 | 11040 ft | 342 kts | 217° |
| 2026-05-05 01:13 | 1.05054 | 9.68688 | 10719 ft | 339 kts | 216° |
| 2026-05-05 01:13 | 1.03193 | 9.67266 | 10383 ft | 334 kts | 215° |
| 2026-05-05 01:13 | 1.01364 | 9.65876 | 10057 ft | 324 kts | 215° |
| 2026-05-05 01:13 | 0.99623 | 9.64552 | 9743 ft | 305 kts | 215° |
| 2026-05-05 01:14 | 0.97979 | 9.63300 | 9438 ft | 290 kts | 215° |
| 2026-05-05 01:14 | 0.96389 | 9.62090 | 9148 ft | 288 kts | 215° |
| 2026-05-05 01:14 | 0.94768 | 9.60858 | 8887 ft | 296 kts | 215° |
| 2026-05-05 01:14 | 0.93138 | 9.59618 | 8626 ft | 298 kts | 215° |
| 2026-05-05 01:15 | 0.91492 | 9.58363 | 8328 ft | 296 kts | 215° |
| 2026-05-05 01:15 | 0.89866 | 9.57123 | 8050 ft | 293 kts | 215° |
| 2026-05-05 01:15 | 0.88250 | 9.55890 | 7768 ft | 290 kts | 216° |
| 2026-05-05 01:15 | 0.86652 | 9.54670 | 7498 ft | 287 kts | 216° |
| 2026-05-05 01:16 | 0.85069 | 9.53463 | 7214 ft | 285 kts | 216° |
| 2026-05-05 01:16 | 0.83499 | 9.52265 | 6965 ft | 283 kts | 216° |
| 2026-05-05 01:16 | 0.81960 | 9.51091 | 6697 ft | 281 kts | 216° |
| 2026-05-05 01:16 | 0.80413 | 9.49910 | 6439 ft | 279 kts | 216° |
| 2026-05-05 01:17 | 0.78879 | 9.48740 | 6147 ft | 277 kts | 216° |
| 2026-05-05 01:17 | 0.77354 | 9.47577 | 5872 ft | 274 kts | 216° |
| 2026-05-05 01:17 | 0.75837 | 9.46420 | 5630 ft | 273 kts | 216° |
| 2026-05-05 01:17 | 0.74335 | 9.45274 | 5360 ft | 271 kts | 216° |
| 2026-05-05 01:18 | 0.72838 | 9.44131 | 5098 ft | 269 kts | 215° |
| 2026-05-05 01:18 | 0.71358 | 9.43002 | 4842 ft | 267 kts | 215° |
| 2026-05-05 01:18 | 0.69886 | 9.41879 | 4580 ft | 264 kts | 215° |
| 2026-05-05 01:18 | 0.68621 | 9.40615 | 4302 ft | 257 kts | 238° |
| 2026-05-05 01:19 | 0.67872 | 9.39018 | 4095 ft | 253 kts | 244° |
| 2026-05-05 01:19 | 0.67125 | 9.37435 | 3837 ft | 246 kts | 242° |
| 2026-05-05 01:19 | 0.66392 | 9.35939 | 3604 ft | 232 kts | 242° |
| 2026-05-05 01:19 | 0.65709 | 9.34550 | 3430 ft | 213 kts | 240° |
| 2026-05-05 01:20 | 0.64817 | 9.33504 | 3224 ft | 193 kts | 205° |
| 2026-05-05 01:20 | 0.63566 | 9.33295 | 3182 ft | 182 kts | 168° |
| 2026-05-05 01:20 | 0.62330 | 9.33610 | 3143 ft | 184 kts | 162° |
| 2026-05-05 01:20 | 0.61153 | 9.33998 | 2933 ft | 171 kts | 161° |
| 2026-05-05 01:21 | 0.60072 | 9.34388 | 2736 ft | 160 kts | 158° |
| 2026-05-05 01:21 | 0.59054 | 9.34833 | 2526 ft | 159 kts | 156° |
| 2026-05-05 01:21 | 0.58060 | 9.35305 | 2336 ft | 158 kts | 155° |
| 2026-05-05 01:21 | 0.57067 | 9.35785 | 2133 ft | 159 kts | 155° |
| 2026-05-05 01:22 | 0.56066 | 9.36273 | 1947 ft | 162 kts | 155° |
| 2026-05-05 01:22 | 0.55042 | 9.36767 | 1721 ft | 159 kts | 156° |
| 2026-05-05 01:22 | 0.54099 | 9.37226 | 1525 ft | 145 kts | 156° |
| 2026-05-05 01:22 | 0.53223 | 9.37652 | 1359 ft | 137 kts | 156° |
| 2026-05-05 01:23 | 0.52360 | 9.38072 | 1163 ft | 139 kts | 156° |
| 2026-05-05 01:23 | 0.51496 | 9.38493 | 989 ft | 138 kts | 157° |
| 2026-05-05 01:23 | 0.50622 | 9.38916 | 813 ft | 140 kts | 158° |
| 2026-05-05 01:23 | 0.49752 | 9.39333 | 638 ft | 140 kts | 156° |
| 2026-05-05 01:24 | 0.48873 | 9.39770 | 409 ft | 140 kts | 155° |
| 2026-05-05 01:24 | 0.48005 | 9.40199 | 267 ft | 141 kts | 156° |
| 2026-05-05 01:24 | 0.47122 | 9.40627 | 63 ft | 142 kts | 156° |
| 2026-05-05 01:24 | 0.46325 | 9.41009 | 41 ft | 116 kts | 154° |
| 2026-05-05 01:25 | 0.45766 | 9.41275 | 39 ft | 63 kts | 155° |
| 2026-05-05 01:25 | 0.45513 | 9.41399 | 40 ft | 24 kts | 154° |
| 2026-05-05 01:25 | 0.45410 | 9.41398 | 40 ft | 9 kts | 242° |
| 2026-05-05 01:25 | 0.45408 | 9.41340 | 41 ft | 9 kts | 299° |
| 2026-05-05 01:26 | 0.45459 | 9.41300 | 41 ft | 10 kts | 333° |
| 2026-05-05 01:26 | 0.45528 | 9.41266 | 40 ft | 12 kts | 333° |
| 2026-05-05 01:26 | 0.45604 | 9.41229 | 40 ft | 13 kts | 335° |
| 2026-05-05 01:26 | 0.45687 | 9.41188 | 40 ft | 14 kts | 333° |
| 2026-05-05 01:27 | 0.45732 | 9.41131 | 41 ft | 5 kts | 247° |
| 2026-05-05 01:27 | 0.45720 | 9.41114 | 41 ft | 0 kts | 238° |